»·PEaware :: AAL492 KSNA-KLAS

AAL492 :: KSNA-KLAS

FLIGHT INFORMATION

Flight Status: Arrived
Operator:
American Airlines
More flights by this operator :: More flights under this callsign
Pilot: Mike C. (16705)
Aircraft: MCDONNELL-DOUGLAS MD-82
(MD82)
More flights by this aircraft type
Origin: KSNA John Wayne-Orange Co
United States
Destination: KLAS McCarran Intl
United States
More flights between these airports :: More routes between these airports
Route: +FINZZ2 MISEN KEPEC6
File this flight plan on PilotEdge
Remarks: PBN / A1B2 DOF / 180930 REG / N904DL OPR / AAL PER / C RMK / TCAS SIMBRIEF
Altitude:
(Current/Filed)
33,000ft
Speed:
(Current/Filed)
451kts
Departed: 30-Sep-18 03:35 PM
Arrived: 30-Sep-18 04:22 PM
Distance/Time
Traveled:
197nm/0:47
Distance/Time
To Go:
Arrived

Flight Plot

Page will automatically refresh every two minutes.

Flight plan parsing failed; only flown route is shown


Map Options




Map Legend


Flown Route
Filed Route
Departure Airport
Arrival Airport
Navaid (VOR, NDB)
Fix

Horizontal Profiles

Position Reports

Time Latitude Longitude Heading Altitude Ground
Speed
30-Sep-18 14:36 33.679315 -117.862363 117 65ft 0kts
30-Sep-18 14:37 33.679315 -117.862363 117 65ft 0kts
30-Sep-18 14:38 33.679315 -117.862363 117 65ft 0kts
30-Sep-18 14:39 33.679315 -117.862363 117 65ft 0kts
30-Sep-18 14:40 33.679315 -117.862363 117 65ft 0kts
30-Sep-18 14:41 33.679315 -117.862363 117 65ft 0kts
30-Sep-18 14:42 33.679315 -117.862363 117 65ft 0kts
30-Sep-18 14:43 33.679315 -117.862363 117 65ft 0kts
30-Sep-18 14:44 33.679315 -117.862363 117 65ft 0kts
30-Sep-18 14:45 33.679315 -117.862363 117 65ft 0kts
30-Sep-18 14:46 33.679315 -117.862363 117 65ft 0kts
30-Sep-18 14:47 33.679315 -117.862363 117 65ft 0kts
30-Sep-18 14:48 33.679315 -117.862363 117 65ft 0kts
30-Sep-18 14:49 33.679315 -117.862363 117 65ft 0kts
30-Sep-18 14:50 33.679315 -117.862363 117 65ft 0kts
30-Sep-18 14:51 33.679315 -117.862363 117 65ft 0kts
30-Sep-18 14:52 33.679315 -117.862363 117 65ft 0kts
30-Sep-18 14:53 33.679315 -117.862363 117 65ft 0kts
30-Sep-18 14:54 33.679315 -117.862363 117 65ft 0kts
30-Sep-18 14:55 33.679315 -117.862363 117 65ft 0kts
30-Sep-18 14:56 33.679315 -117.862363 117 65ft 0kts
30-Sep-18 14:57 33.679315 -117.862363 117 65ft 0kts
30-Sep-18 14:58 33.679315 -117.862363 117 65ft 0kts
30-Sep-18 14:59 33.679315 -117.862363 117 65ft 0kts
30-Sep-18 15:00 33.679315 -117.862363 117 65ft 0kts
30-Sep-18 15:01 33.679315 -117.862363 117 65ft 0kts
30-Sep-18 15:02 33.679315 -117.862363 117 65ft 0kts
30-Sep-18 15:03 33.679315 -117.862363 117 65ft 0kts
30-Sep-18 15:04 33.679315 -117.862363 117 65ft 0kts
30-Sep-18 15:05 33.679315 -117.862363 117 65ft 0kts
30-Sep-18 15:06 33.679315 -117.862363 117 65ft 0kts
30-Sep-18 15:07 33.679315 -117.862363 117 65ft 0kts
30-Sep-18 15:08 33.679315 -117.862363 117 65ft 0kts
30-Sep-18 15:16 33.679315 -117.862363 117 65ft 0kts
30-Sep-18 15:17 33.679315 -117.862363 117 65ft 0kts
30-Sep-18 15:18 33.679315 -117.862363 117 65ft 0kts
30-Sep-18 15:19 33.679315 -117.862363 117 65ft 0kts
30-Sep-18 15:20 33.679315 -117.862363 117 65ft 0kts
30-Sep-18 15:21 33.679315 -117.862363 117 65ft 0kts
30-Sep-18 15:22 33.679315 -117.862363 117 65ft 0kts
30-Sep-18 15:23 33.679315 -117.862363 117 65ft 0kts
30-Sep-18 15:24 33.679315 -117.862363 117 65ft 0kts
30-Sep-18 15:25 33.679315 -117.862363 117 65ft 0kts
30-Sep-18 15:26 33.679334 -117.862406 116 65ft 1kts
30-Sep-18 15:27 33.679405 -117.863094 54 65ft 2kts
30-Sep-18 15:28 33.679188 -117.863277 27 65ft 0kts
30-Sep-18 15:29 33.679190 -117.863275 27 65ft 0kts
30-Sep-18 15:30 33.679214 -117.863261 27 65ft 0kts
30-Sep-18 15:31 33.679233 -117.863249 27 65ft 0kts
30-Sep-18 15:32 33.679961 -117.862798 26 65ft 4kts
30-Sep-18 15:33 33.681132 -117.864141 296 65ft 0kts
30-Sep-18 15:34 33.681133 -117.864144 296 65ft 0kts
30-Sep-18 15:35 33.681153 -117.864191 296 65ft 0kts
30-Sep-18 15:36 33.681234 -117.865357 210 65ft 2kts
30-Sep-18 15:37 33.673930 -117.869958 209 66ft 126kts
30-Sep-18 15:38 33.638814 -117.890431 192 2062ft 145kts
30-Sep-18 15:39 33.592115 -117.897168 185 3220ft 202kts
30-Sep-18 15:40 33.534685 -117.932056 224 4928ft 262kts
30-Sep-18 15:41 33.486338 -117.997011 246 7601ft 272kts
30-Sep-18 15:42 33.519013 -118.073044 327 8625ft 294kts
30-Sep-18 15:43 33.594768 -118.103104 7 10474ft 334kts
30-Sep-18 15:44 33.687956 -118.069121 21 12342ft 361kts
30-Sep-18 15:45 33.781711 -118.018686 24 14486ft 372kts
30-Sep-18 15:46 33.876025 -117.964107 24 16527ft 382kts
30-Sep-18 15:47 33.968951 -117.895719 36 17579ft 400kts
30-Sep-18 15:48 34.056913 -117.810981 38 19369ft 410kts
30-Sep-18 15:49 34.140183 -117.714750 51 20862ft 423kts
30-Sep-18 15:50 34.212420 -117.600129 53 22266ft 433kts
30-Sep-18 15:51 34.287820 -117.484453 51 23434ft 446kts
30-Sep-18 15:52 34.366852 -117.366588 50 24733ft 455kts
30-Sep-18 15:53 34.447303 -117.246567 50 25950ft 464kts
30-Sep-18 15:54 34.529385 -117.123837 50 27001ft 472kts
30-Sep-18 15:55 34.613821 -116.999480 49 27955ft 480kts
30-Sep-18 15:56 34.699668 -116.874329 49 28762ft 487kts
30-Sep-18 15:57 34.786957 -116.746801 49 29439ft 494kts
30-Sep-18 15:58 34.877170 -116.619589 42 30001ft 497kts
30-Sep-18 15:59 34.983584 -116.514691 34 28504ft 487kts
30-Sep-18 16:00 35.090711 -116.416589 36 25904ft 474kts
30-Sep-18 16:01 35.185139 -116.308953 45 23717ft 449kts
30-Sep-18 16:02 35.267967 -116.200140 46 21542ft 428kts
30-Sep-18 16:03 35.348515 -116.096464 45 19281ft 413kts
30-Sep-18 16:04 35.427441 -115.996966 45 17677ft 401kts
30-Sep-18 16:05 35.504416 -115.899589 46 16176ft 393kts
30-Sep-18 16:06 35.579897 -115.803876 46 14675ft 386kts
30-Sep-18 16:07 35.653824 -115.709705 46 13219ft 373kts
30-Sep-18 16:08 35.721140 -115.623936 46 13021ft 338kts
30-Sep-18 16:09 35.797521 -115.563237 2 13036ft 333kts
30-Sep-18 16:10 35.889340 -115.563790 354 13030ft 329kts
30-Sep-18 16:11 35.979940 -115.551971 32 13023ft 339kts
30-Sep-18 16:12 36.019860 -115.454328 79 13020ft 332kts
30-Sep-18 16:13 36.035010 -115.344170 99 10714ft 307kts
30-Sep-18 16:14 36.024128 -115.251139 102 9661ft 281kts
30-Sep-18 16:15 36.015760 -115.155810 98 8291ft 274kts
30-Sep-18 16:16 36.010010 -115.070237 98 8027ft 251kts
30-Sep-18 16:17 36.010010 -115.070237 98 8027ft 251kts
30-Sep-18 16:18 36.006982 -115.021816 98 7393ft 259kts
30-Sep-18 16:19 36.018975 -114.937613 38 5878ft 256kts
30-Sep-18 16:20 36.074158 -114.957981 298 4875ft 217kts
30-Sep-18 16:21 36.072813 -115.025761 252 3579ft 190kts
30-Sep-18 16:22 36.073899 -115.085540 265 2806ft 159kts
30-Sep-18 16:23 36.073517 -115.133799 271 2191ft 84kts
30-Sep-18 16:24 36.073651 -115.140581 272 2190ft 25kts
30-Sep-18 16:25 36.074499 -115.145470 298 2190ft 0kts
30-Sep-18 16:26 36.074544 -115.145568 299 2190ft 0kts
30-Sep-18 16:27 36.074666 -115.145813 302 2190ft 4kts
30-Sep-18 16:28 36.077522 -115.146217 43 2190ft 11kts
30-Sep-18 16:29 36.077651 -115.142666 56 2190ft 9kts
30-Sep-18 16:30 36.082018 -115.142489 359 2190ft 18kts
30-Sep-18 16:31 36.084416 -115.138435 88 2190ft 16kts
30-Sep-18 16:32 36.083152 -115.133799 172 2190ft 14kts
30-Sep-18 16:33 36.081446 -115.135611 242 2190ft 1kts
30-Sep-18 16:34 36.081415 -115.135685 243 2190ft 0kts
30-Sep-18 16:35 36.081415 -115.135685 243 2190ft 0kts
30-Sep-18 16:36 36.081415 -115.135685 243 2190ft 0kts

Navigation Log

Ident Type
Flight plan parsing failed, navigation log unavailable